Time;durP1;ratioP1;P1;durP2;ratioP2;P2;SDS_P1;SDS_P2;PMS_P1;PMS_P2;Temp;Humidity;BMP_temperature;BMP_pressure;BME280_temperature;BME280_humidity;BME280_pressure;Samples;Min_cycle;Max_cycle;Signal;HPM_P1;HPM_P2
2023/01/23 00:02:19;;;;;;;23.88;11.40;;;5.90;99.90;;;;;;5015267;28;20129;-79
2023/01/23 00:04:45;;;;;;;19.35;9.43;;;5.90;99.90;;;;;;5013051;28;20083;-77
2023/01/23 00:07:10;;;;;;;25.67;10.68;;;5.90;99.90;;;;;;5013871;28;20111;-79
2023/01/23 00:09:36;;;;;;;20.95;9.85;;;5.90;99.90;;;;;;5010959;28;20176;-77
2023/01/23 00:12:03;;;;;;;24.67;10.18;;;5.90;99.90;;;;;;5011204;28;20037;-77
2023/01/23 00:14:29;;;;;;;21.20;9.40;;;5.90;99.90;;;;;;5009585;28;20033;-78
2023/01/23 00:16:55;;;;;;;23.65;10.57;;;5.90;99.90;;;;;;5010807;28;20030;-78
2023/01/23 00:19:20;;;;;;;23.75;11.25;;;5.80;99.90;;;;;;5010512;28;20146;-79
2023/01/23 00:21:46;;;;;;;20.73;9.63;;;5.80;99.90;;;;;;5010735;28;20045;-79
2023/01/23 00:24:12;;;;;;;25.15;11.32;;;5.80;99.90;;;;;;5010560;28;20033;-80
2023/01/23 00:26:38;;;;;;;27.27;11.05;;;5.80;99.90;;;;;;5009627;28;20138;-79
2023/01/23 00:29:03;;;;;;;24.85;10.77;;;5.70;99.90;;;;;;5010514;28;20023;-78
2023/01/23 00:31:32;;;;;;;28.70;11.27;;;5.70;99.90;;;;;;5011639;28;20109;-79
2023/01/23 00:34:05;;;;;;;27.13;11.85;;;5.80;99.90;;;;;;5013553;28;20022;-80
2023/01/23 00:36:33;;;;;;;27.02;11.27;;;5.80;99.90;;;;;;5014867;28;20072;-79
2023/01/23 00:38:59;;;;;;;29.70;11.07;;;5.80;99.90;;;;;;5014557;28;20028;-78
2023/01/23 00:41:25;;;;;;;28.52;10.52;;;5.80;99.90;;;;;;5014310;28;20030;-79
2023/01/23 00:43:51;;;;;;;29.40;11.65;;;5.70;99.90;;;;;;5014065;28;20026;-79
2023/01/23 00:46:18;;;;;;;30.45;11.90;;;5.70;99.90;;;;;;5013033;28;20096;-79
2023/01/23 00:48:44;;;;;;;33.67;11.25;;;5.80;99.90;;;;;;5014461;28;20026;-79
2023/01/23 00:51:10;;;;;;;27.17;11.27;;;5.70;99.90;;;;;;5014515;28;20096;-79
2023/01/23 00:53:36;;;;;;;33.63;11.00;;;5.70;99.90;;;;;;5014174;28;20046;-79
2023/01/23 00:56:01;;;;;;;25.60;10.10;;;5.80;99.90;;;;;;5014206;28;20029;-79
2023/01/23 00:58:27;;;;;;;28.55;10.50;;;5.80;99.90;;;;;;5014006;28;20034;-79
2023/01/23 01:00:53;;;;;;;32.42;11.38;;;5.80;99.90;;;;;;5014196;28;20030;-79
2023/01/23 01:03:19;;;;;;;23.88;10.60;;;5.80;99.90;;;;;;5014260;28;20432;-79
2023/01/23 01:05:45;;;;;;;27.55;11.32;;;5.70;99.90;;;;;;5014334;28;20082;-79
2023/01/23 01:08:11;;;;;;;29.13;10.30;;;5.70;99.90;;;;;;5014002;28;20069;-78
2023/01/23 01:10:39;;;;;;;27.77;10.70;;;5.70;99.90;;;;;;5013837;28;20441;-78
2023/01/23 01:13:05;;;;;;;25.50;10.52;;;5.70;99.90;;;;;;5013952;28;20056;-79
2023/01/23 01:15:31;;;;;;;31.52;11.75;;;5.70;99.90;;;;;;5013677;28;20468;-79
2023/01/23 01:17:57;;;;;;;31.05;11.18;;;5.80;99.90;;;;;;5014479;28;20030;-79
2023/01/23 01:20:24;;;;;;;25.13;10.52;;;5.70;99.90;;;;;;5014329;28;20049;-79
2023/01/23 01:22:55;;;;;;;27.47;11.33;;;5.70;99.90;;;;;;5013179;28;20030;-79
2023/01/23 01:25:20;;;;;;;31.08;11.73;;;5.70;99.90;;;;;;5013574;28;20658;-79
2023/01/23 01:27:46;;;;;;;31.00;11.10;;;5.70;99.90;;;;;;5014067;28;20341;-79
2023/01/23 01:30:12;;;;;;;36.15;11.82;;;5.70;99.90;;;;;;5012961;28;20409;-78
2023/01/23 01:32:39;;;;;;;27.92;10.82;;;5.70;99.90;;;;;;5012820;28;20117;-79
2023/01/23 01:35:08;;;;;;;38.80;12.32;;;5.70;99.90;;;;;;5013611;28;20532;-77
2023/01/23 01:37:38;;;;;;;38.47;12.02;;;5.70;99.90;;;;;;5012769;28;20038;-78
2023/01/23 01:40:11;;;;;;;25.85;11.35;;;5.70;99.90;;;;;;5013661;28;20038;-79
2023/01/23 01:42:46;;;;;;;29.02;10.90;;;5.70;99.90;;;;;;5011763;28;20030;-78
2023/01/23 01:45:49;;;;;;;26.33;11.82;;;5.70;99.90;;;;;;5014505;28;20072;-77
2023/01/23 01:48:15;;;;;;;33.25;11.07;;;5.70;99.90;;;;;;5014932;28;20101;-77
2023/01/23 01:50:42;;;;;;;19.90;9.93;;;5.80;99.90;;;;;;5013650;28;20104;-77
2023/01/23 01:53:09;;;;;;;29.15;11.45;;;5.80;99.90;;;;;;5014270;28;20124;-77
2023/01/23 01:55:35;;;;;;;29.60;11.50;;;5.80;99.90;;;;;;5013076;28;20498;-78
2023/01/23 01:58:01;;;;;;;28.25;10.10;;;5.70;99.90;;;;;;5013117;28;20096;-78
2023/01/23 02:00:27;;;;;;;34.60;12.00;;;5.70;99.90;;;;;;5012973;28;20416;-77
2023/01/23 02:02:57;;;;;;;30.98;11.32;;;5.70;99.90;;;;;;5013299;28;20037;-77
2023/01/23 02:05:26;;;;;;;27.80;10.80;;;5.80;99.90;;;;;;5012929;28;20096;-77
2023/01/23 02:08:32;;;;;;;28.35;10.48;;;5.80;99.90;;;;;;5012783;28;20124;-79
2023/01/23 02:11:02;;;;;;;32.90;10.40;;;5.80;99.90;;;;;;5013000;28;20521;-77
2023/01/23 02:13:38;;;;;;;36.13;10.93;;;5.80;99.90;;;;;;5011720;28;20103;-77
2023/01/23 02:16:06;;;;;;;26.55;11.20;;;5.80;99.90;;;;;;5013128;28;20109;-77
2023/01/23 02:18:34;;;;;;;27.55;10.88;;;5.80;99.90;;;;;;5012485;28;20084;-77
2023/01/23 02:21:02;;;;;;;;;;;5.80;99.90;;;;;;5012252;28;20034;-78
2023/01/23 02:23:28;;;;;;;;;;;5.80;99.90;;;;;;5012980;28;19910;-77
2023/01/23 02:25:54;;;;;;;26.70;10.95;;;5.80;99.90;;;;;;5011266;28;19929;-78
2023/01/23 02:28:20;;;;;;;28.88;10.70;;;5.70;99.90;;;;;;5012703;28;20330;-77
2023/01/23 02:30:46;;;;;;;24.77;9.88;;;5.70;99.90;;;;;;5012637;28;20093;-77
2023/01/23 02:33:23;;;;;;;23.45;10.45;;;5.90;99.90;;;;;;5012385;28;20022;-78
2023/01/23 02:35:49;;;;;;;29.13;12.00;;;5.70;99.90;;;;;;5003810;28;20026;-78
2023/01/23 02:38:19;;;;;;;31.95;11.27;;;5.70;99.90;;;;;;4992691;28;20065;-78
2023/01/23 02:40:45;;;;;;;28.08;11.15;;;5.70;99.90;;;;;;4992872;28;20031;-78
2023/01/23 02:43:15;;;;;;;31.10;11.70;;;5.70;99.90;;;;;;4991743;28;20088;-79
2023/01/23 02:45:41;;;;;;;36.25;11.55;;;5.70;99.90;;;;;;4992784;28;20092;-78
2023/01/23 02:48:07;;;;;;;28.65;10.05;;;5.70;99.90;;;;;;4993013;28;20140;-79
2023/01/23 02:50:34;;;;;;;33.22;11.25;;;5.80;99.90;;;;;;4992738;28;20039;-78
2023/01/23 02:52:59;;;;;;;23.10;9.27;;;5.80;99.90;;;;;;4990734;28;20041;-77
2023/01/23 02:55:28;;;;;;;33.25;10.68;;;5.80;99.90;;;;;;4991072;28;20026;-78
2023/01/23 03:00:14;;;;;;;29.60;10.77;;;5.80;99.90;;;;;;4991298;28;20042;-78
2023/01/23 03:00:42;;;;;;;34.38;10.23;;;5.90;99.90;;;;;;4992235;28;20073;-77
2023/01/23 03:03:08;;;;;;;26.95;10.70;;;5.80;99.90;;;;;;4991826;28;20026;-78
2023/01/23 03:05:34;;;;;;;28.05;10.30;;;5.80;99.90;;;;;;4992237;28;20539;-79
2023/01/23 03:07:59;;;;;;;28.85;11.20;;;5.80;99.90;;;;;;4992152;28;20031;-78
2023/01/23 03:10:25;;;;;;;33.15;11.52;;;5.70;99.90;;;;;;4990955;28;20035;-77
2023/01/23 03:12:51;;;;;;;31.17;11.60;;;5.70;99.90;;;;;;4992464;28;20043;-78
2023/01/23 03:15:17;;;;;;;25.17;9.82;;;5.70;99.90;;;;;;4990972;28;20042;-79
2023/01/23 03:17:42;;;;;;;31.52;10.50;;;5.70;99.90;;;;;;4991321;28;20026;-78
2023/01/23 03:20:09;;;;;;;31.60;10.77;;;5.80;99.90;;;;;;4990661;28;20045;-79
2023/01/23 03:22:35;;;;;;;33.20;10.98;;;5.80;99.90;;;;;;4991041;28;20483;-79
2023/01/23 03:25:01;;;;;;;29.17;10.32;;;5.70;99.90;;;;;;4991703;28;20022;-78
2023/01/23 03:27:27;;;;;;;33.13;11.07;;;5.70;99.90;;;;;;4991864;28;20069;-78
2023/01/23 03:32:37;;;;;;;30.35;11.07;;;5.70;99.90;;;;;;4991656;28;20050;-78
2023/01/23 03:35:05;;;;;;;35.70;11.32;;;6.00;99.90;;;;;;4990378;28;20402;-78
2023/01/23 03:37:30;;;;;;;34.42;10.77;;;5.80;99.90;;;;;;4991423;28;20287;-78
2023/01/23 03:42:40;;;;;;;33.53;10.40;;;5.90;99.90;;;;;;4991388;28;20040;-77
2023/01/23 03:45:06;;;;;;;29.85;9.80;;;5.80;99.90;;;;;;4991826;28;20479;-77
2023/01/23 03:47:32;;;;;;;31.42;11.27;;;5.80;99.90;;;;;;4991586;28;20053;-77
2023/01/23 03:49:58;;;;;;;30.02;11.23;;;5.80;99.90;;;;;;4991422;28;20473;-77
2023/01/23 03:52:23;;;;;;;33.50;10.68;;;5.70;99.90;;;;;;4991333;28;20046;-77
2023/01/23 03:54:49;;;;;;;34.15;10.73;;;5.70;99.90;;;;;;4991129;28;20476;-78
2023/01/23 03:57:15;;;;;;;24.33;11.02;;;5.70;99.90;;;;;;4991475;28;20031;-77
2023/01/23 03:59:40;;;;;;;33.45;10.45;;;5.70;99.90;;;;;;4991877;28;20026;-79
2023/01/23 04:02:06;;;;;;;31.65;11.32;;;5.70;99.90;;;;;;4991149;28;20373;-78
2023/01/23 04:04:33;;;;;;;28.38;11.23;;;5.70;99.90;;;;;;4991089;28;20037;-79
2023/01/23 04:06:58;;;;;;;31.75;12.68;;;5.70;99.90;;;;;;4991035;28;20102;-78
2023/01/23 04:09:26;;;;;;;27.33;11.48;;;5.70;99.90;;;;;;4991504;28;20470;-79
2023/01/23 04:11:56;;;;;;;30.85;11.48;;;5.70;99.90;;;;;;4990689;28;20030;-78
2023/01/23 04:14:24;;;;;;;27.90;11.85;;;5.70;99.90;;;;;;4990458;28;20035;-76
2023/01/23 04:16:50;;;;;;;34.33;12.82;;;5.70;99.90;;;;;;4990099;28;20416;-78
2023/01/23 04:19:19;;;;;;;34.22;12.00;;;5.70;99.90;;;;;;4991194;28;20117;-79
2023/01/23 04:21:47;;;;;;;32.50;11.30;;;5.70;99.90;;;;;;4991309;28;20038;-78
2023/01/23 04:24:13;;;;;;;34.75;12.68;;;5.80;99.90;;;;;;4991192;28;20464;-77
2023/01/23 04:26:39;;;;;;;32.50;12.45;;;5.70;99.90;;;;;;4990468;28;20058;-78
2023/01/23 04:29:04;;;;;;;30.02;11.07;;;5.80;99.90;;;;;;4990499;28;20373;-79
2023/01/23 04:31:30;;;;;;;29.45;11.73;;;5.70;99.90;;;;;;4991444;28;20038;-79
2023/01/23 04:33:56;;;;;;;35.72;11.77;;;5.70;99.90;;;;;;4991160;28;20088;-79
2023/01/23 04:36:22;;;;;;;29.70;11.85;;;5.60;99.90;;;;;;4990048;28;20427;-78
2023/01/23 04:38:47;;;;;;;30.90;12.70;;;5.60;99.90;;;;;;4990613;28;20121;-78
2023/01/23 04:41:27;;;;;;;29.05;11.95;;;5.70;99.90;;;;;;4991261;28;20039;-79
2023/01/23 04:43:53;;;;;;;30.27;11.25;;;5.60;99.90;;;;;;4990224;28;20041;-79
2023/01/23 04:46:19;;;;;;;29.45;12.82;;;5.60;99.90;;;;;;4990900;28;20030;-77
2023/01/23 04:48:45;;;;;;;33.05;11.73;;;5.60;99.90;;;;;;4990996;28;20039;-78
2023/01/23 04:51:11;;;;;;;32.42;11.40;;;5.60;99.90;;;;;;4990290;28;20026;-77
2023/01/23 04:53:37;;;;;;;31.95;12.45;;;5.60;99.90;;;;;;4990983;28;20529;-77
2023/01/23 04:56:03;;;;;;;30.23;12.23;;;5.70;99.90;;;;;;4990924;28;20023;-77
2023/01/23 04:58:29;;;;;;;33.25;11.23;;;5.60;99.90;;;;;;4990885;28;20458;-78
2023/01/23 05:01:01;;;;;;;29.20;10.75;;;5.60;99.90;;;;;;4990883;28;20030;-78
2023/01/23 05:03:27;;;;;;;34.58;12.60;;;5.60;99.90;;;;;;4990739;28;20118;-79
2023/01/23 05:05:52;;;;;;;31.83;10.80;;;5.60;99.90;;;;;;4990261;28;20113;-79
2023/01/23 05:08:18;;;;;;;35.03;10.77;;;5.60;99.90;;;;;;4990721;28;20031;-79
2023/01/23 05:10:44;;;;;;;33.00;10.95;;;5.60;99.90;;;;;;4991110;28;20050;-78
2023/01/23 05:13:10;;;;;;;32.95;11.45;;;5.60;99.90;;;;;;4990910;28;20092;-77
2023/01/23 05:15:35;;;;;;;32.50;11.45;;;5.60;99.90;;;;;;4990566;28;20034;-77
2023/01/23 05:18:02;;;;;;;35.70;11.63;;;5.60;99.90;;;;;;4993824;28;20178;-77
2023/01/23 05:20:28;;;;;;;36.63;12.63;;;5.60;99.90;;;;;;4994504;28;20030;-78
2023/01/23 05:22:53;;;;;;;28.48;11.65;;;5.60;99.90;;;;;;4994182;28;20038;-77
2023/01/23 05:25:25;;;;;;;40.58;12.65;;;5.60;99.90;;;;;;4994127;28;20026;-77
2023/01/23 05:27:51;;;;;;;36.92;12.48;;;5.60;99.90;;;;;;4992892;28;20053;-78
2023/01/23 05:30:20;;;;;;;37.13;13.10;;;5.60;99.90;;;;;;4993112;28;20041;-78
2023/01/23 05:32:46;;;;;;;34.88;12.55;;;5.60;99.90;;;;;;4995214;28;20018;-78
2023/01/23 05:35:12;;;;;;;36.40;13.23;;;5.60;99.90;;;;;;4994934;28;20039;-78
2023/01/23 05:37:38;;;;;;;35.47;12.35;;;5.60;99.90;;;;;;4995366;28;20117;-77
2023/01/23 05:40:07;;;;;;;34.10;12.48;;;5.50;99.90;;;;;;4997001;28;20114;-78
2023/01/23 05:42:36;;;;;;;29.85;12.52;;;5.60;99.90;;;;;;4995829;28;20049;-78
2023/01/23 05:45:02;;;;;;;42.50;13.70;;;5.60;99.90;;;;;;4995190;28;20456;-77
2023/01/23 05:47:28;;;;;;;30.67;12.70;;;5.60;99.90;;;;;;4994060;28;20326;-77
2023/01/23 05:49:53;;;;;;;40.72;14.23;;;5.60;99.90;;;;;;4994054;28;20035;-77
2023/01/23 05:52:20;;;;;;;35.75;12.73;;;5.50;99.90;;;;;;4994067;28;20030;-76
2023/01/23 05:54:46;;;;;;;38.67;13.48;;;5.50;99.90;;;;;;4993893;28;20026;-78
2023/01/23 05:57:12;;;;;;;40.63;13.57;;;5.50;99.90;;;;;;4994479;28;20045;-76
2023/01/23 05:59:37;;;;;;;29.73;13.07;;;5.60;99.90;;;;;;4994483;28;20479;-78
2023/01/23 06:02:03;;;;;;;43.00;13.77;;;5.70;99.90;;;;;;4998058;28;20031;-78
2023/01/23 06:04:29;;;;;;;45.35;13.25;;;5.70;99.90;;;;;;4998602;28;20026;-78
2023/01/23 06:06:54;;;;;;;33.55;13.25;;;5.70;99.90;;;;;;5001318;28;20338;-78
2023/01/23 06:09:20;;;;;;;38.55;14.05;;;5.60;99.90;;;;;;4996753;28;20023;-77
2023/01/23 06:11:46;;;;;;;30.10;12.07;;;5.60;99.90;;;;;;4995884;28;20026;-76
2023/01/23 06:14:11;;;;;;;33.58;12.77;;;5.60;99.90;;;;;;4996028;28;20089;-77
2023/01/23 06:16:37;;;;;;;34.58;13.27;;;5.60;99.90;;;;;;4997533;28;20073;-79
2023/01/23 06:19:03;;;;;;;30.42;12.70;;;5.70;99.90;;;;;;4998901;28;20038;-80
2023/01/23 06:21:28;;;;;;;31.15;13.30;;;5.60;99.90;;;;;;4995564;28;20045;-79
2023/01/23 06:23:54;;;;;;;33.97;14.05;;;5.60;99.90;;;;;;4992708;28;20033;-78
2023/01/23 06:26:19;;;;;;;39.28;12.07;;;5.60;99.90;;;;;;4993489;28;20064;-77
2023/01/23 06:28:45;;;;;;;30.80;13.38;;;5.70;99.90;;;;;;4992454;28;20026;-81
2023/01/23 06:31:11;;;;;;;38.60;13.75;;;5.60;99.90;;;;;;4993340;28;20026;-79
2023/01/23 06:33:36;;;;;;;31.55;12.82;;;5.60;99.90;;;;;;4993064;28;20039;-78
2023/01/23 06:36:04;;;;;;;31.65;12.85;;;5.60;99.90;;;;;;4980247;28;20031;-79
2023/01/23 06:38:30;;;;;;;36.78;12.80;;;5.70;99.90;;;;;;4991961;28;20042;-80
2023/01/23 06:40:56;;;;;;;31.13;12.13;;;5.70;99.90;;;;;;4993613;28;20424;-80
2023/01/23 06:43:23;;;;;;;35.75;12.80;;;5.60;99.90;;;;;;5008409;28;20042;-79
2023/01/23 06:45:49;;;;;;;37.47;14.00;;;5.60;99.90;;;;;;4993135;28;20403;-78
2023/01/23 06:48:14;;;;;;;36.53;12.70;;;5.60;99.90;;;;;;4993333;28;20026;-76
2023/01/23 06:50:42;;;;;;;33.05;13.13;;;5.60;99.90;;;;;;4994006;28;20045;-80
2023/01/23 06:53:10;;;;;;;29.98;12.05;;;5.60;99.90;;;;;;4993243;28;20476;-79
2023/01/23 06:55:36;;;;;;;34.70;14.60;;;5.60;99.90;;;;;;5006011;28;20038;-83
2023/01/23 06:58:02;;;;;;;30.73;12.38;;;5.70;99.90;;;;;;4993989;28;20045;-83
2023/01/23 07:00:27;;;;;;;30.15;12.75;;;5.70;99.90;;;;;;4996028;28;20028;-82
2023/01/23 07:02:57;;;;;;;22.60;11.10;;;5.80;99.90;;;;;;5002285;28;20023;-81
2023/01/23 07:05:23;;;;;;;29.25;11.98;;;5.70;99.90;;;;;;5004657;28;20031;-81
2023/01/23 07:07:50;;;;;;;30.05;12.25;;;5.70;99.90;;;;;;5004167;28;20109;-81
2023/01/23 07:10:16;;;;;;;28.15;11.55;;;5.80;99.90;;;;;;5005413;28;20023;-82
2023/01/23 07:12:41;;;;;;;26.95;11.73;;;5.70;99.90;;;;;;4999334;28;20103;-82
2023/01/23 07:15:07;;;;;;;35.33;12.38;;;5.80;99.90;;;;;;4995600;28;20441;-81
2023/01/23 07:17:33;;;;;;;30.00;13.23;;;5.80;99.90;;;;;;4995881;28;20118;-80
2023/01/23 07:19:59;;;;;;;30.70;12.48;;;5.70;99.90;;;;;;4994077;28;20319;-81
2023/01/23 07:22:25;;;;;;;31.73;13.30;;;5.60;99.90;;;;;;4996502;28;20329;-80
2023/01/23 07:24:50;;;;;;;29.77;12.95;;;5.60;99.90;;;;;;4994942;28;20034;-81
2023/01/23 07:27:16;;;;;;;28.65;11.82;;;5.60;99.90;;;;;;4993385;28;20064;-82
2023/01/23 07:29:42;;;;;;;32.33;13.45;;;5.60;99.90;;;;;;5011970;28;20037;-83
2023/01/23 07:32:08;;;;;;;32.72;13.85;;;5.60;99.90;;;;;;5012447;28;20104;-84
2023/01/23 07:34:33;;;;;;;33.35;13.75;;;5.70;99.90;;;;;;5011053;28;20457;-83
2023/01/23 07:36:59;;;;;;;33.00;13.27;;;5.60;99.90;;;;;;5012333;28;20444;-82
2023/01/23 07:39:25;;;;;;;31.40;13.82;;;5.90;99.90;;;;;;5010702;28;20022;-83
2023/01/23 07:41:52;;;;;;;30.88;12.35;;;5.60;99.90;;;;;;5012787;28;20168;-83
2023/01/23 07:44:20;;;;;;;32.95;13.98;;;5.80;99.90;;;;;;5012093;28;20459;-84
2023/01/23 07:46:47;;;;;;;27.47;11.70;;;5.70;99.90;;;;;;5012246;28;20164;-84
2023/01/23 07:49:13;;;;;;;30.38;13.20;;;5.70;99.90;;;;;;5011893;28;20371;-84
2023/01/23 07:51:39;;;;;;;29.75;12.15;;;5.70;99.90;;;;;;5011145;28;20045;-83
2023/01/23 07:54:04;;;;;;;25.75;12.43;;;5.70;99.90;;;;;;5012699;28;20498;-81
2023/01/23 07:56:31;;;;;;;31.27;13.05;;;5.60;99.90;;;;;;5011617;28;20022;-82
2023/01/23 07:58:58;;;;;;;30.23;13.65;;;5.70;99.90;;;;;;5011093;28;20034;-82
2023/01/23 08:01:24;;;;;;;33.05;13.35;;;5.60;99.90;;;;;;5011098;28;20050;-82
2023/01/23 08:03:50;;;;;;;29.65;14.13;;;5.60;99.90;;;;;;5011942;28;20550;-81
2023/01/23 08:06:15;;;;;;;27.17;11.40;;;5.60;99.90;;;;;;5010876;28;20026;-83
2023/01/23 08:08:41;;;;;;;31.83;13.45;;;5.60;99.90;;;;;;5011388;28;20026;-82
2023/01/23 08:11:11;;;;;;;31.45;12.93;;;5.60;99.90;;;;;;5012914;28;20038;-83
2023/01/23 08:13:37;;;;;;;29.00;13.48;;;5.70;99.90;;;;;;5012302;28;20041;-82
2023/01/23 08:16:03;;;;;;;31.30;14.15;;;5.60;99.90;;;;;;5012259;28;20034;-83
2023/01/23 08:18:29;;;;;;;33.38;13.90;;;5.60;99.90;;;;;;5012648;28;20026;-83
2023/01/23 08:20:57;;;;;;;27.73;14.38;;;5.60;99.90;;;;;;5013033;28;20057;-83
2023/01/23 08:23:27;;;;;;;34.88;14.55;;;5.60;99.90;;;;;;5012736;28;20042;-84
2023/01/23 08:25:54;;;;;;;33.47;14.35;;;5.50;99.90;;;;;;5010883;28;20543;-82
2023/01/23 08:28:21;;;;;;;29.88;13.68;;;5.50;99.90;;;;;;5013122;28;20153;-84
2023/01/23 08:30:47;;;;;;;37.53;14.90;;;5.40;99.90;;;;;;5013150;28;20088;-84
2023/01/23 08:33:12;;;;;;;34.03;15.05;;;5.50;99.90;;;;;;5011183;28;20037;-80
2023/01/23 08:35:38;;;;;;;37.92;15.18;;;5.40;99.90;;;;;;5013469;28;20353;-81
2023/01/23 08:38:04;;;;;;;36.40;15.35;;;5.50;99.90;;;;;;5011472;28;20030;-84
2023/01/23 08:40:30;;;;;;;28.48;13.85;;;5.60;99.90;;;;;;5011468;28;20522;-84
2023/01/23 08:42:55;;;;;;;39.05;16.20;;;5.60;99.90;;;;;;5011832;28;20041;-83
2023/01/23 08:45:21;;;;;;;32.88;14.27;;;5.60;99.90;;;;;;5011837;28;20022;-84
2023/01/23 08:47:47;;;;;;;34.10;14.25;;;5.60;99.90;;;;;;5012206;28;20029;-83
2023/01/23 08:50:13;;;;;;;34.20;14.63;;;5.60;99.90;;;;;;5010585;28;20486;-83
2023/01/23 08:52:38;;;;;;;36.15;15.15;;;5.60;99.90;;;;;;5012668;28;20026;-82
2023/01/23 08:55:05;;;;;;;33.00;14.90;;;5.70;99.90;;;;;;5013461;28;20026;-84
2023/01/23 08:57:30;;;;;;;31.65;13.95;;;5.60;99.90;;;;;;5014736;28;20025;-82
2023/01/23 08:59:56;;;;;;;36.38;13.90;;;5.60;99.90;;;;;;5015366;28;20022;-83
2023/01/23 09:02:22;;;;;;;31.55;13.63;;;5.70;99.90;;;;;;5014044;28;20352;-82
2023/01/23 09:04:48;;;;;;;33.58;14.70;;;5.70;99.90;;;;;;5016388;28;20041;-84
2023/01/23 09:07:14;;;;;;;32.10;14.02;;;5.70;99.90;;;;;;5015886;28;20026;-86
2023/01/23 09:09:39;;;;;;;30.80;13.15;;;5.80;99.90;;;;;;5014771;28;20419;-83
2023/01/23 09:12:06;;;;;;;29.00;13.20;;;5.70;99.90;;;;;;5015531;28;20059;-85
2023/01/23 09:14:31;;;;;;;30.05;13.40;;;5.60;99.90;;;;;;5015338;28;20174;-84
2023/01/23 09:16:57;;;;;;;34.20;13.40;;;5.70;99.90;;;;;;5014613;28;20034;-85
2023/01/23 09:19:23;;;;;;;29.50;13.32;;;5.70;99.90;;;;;;5015479;28;20044;-85
2023/01/23 09:21:51;;;;;;;31.70;14.18;;;5.70;99.90;;;;;;5015493;28;20034;-82
2023/01/23 09:24:16;;;;;;;31.38;13.32;;;5.60;99.90;;;;;;5014334;28;20033;-80
2023/01/23 09:26:42;;;;;;;31.52;13.18;;;5.80;99.90;;;;;;5014824;28;20041;-82
2023/01/23 09:29:08;;;;;;;29.55;12.63;;;5.70;99.90;;;;;;5015601;28;20423;-83
2023/01/23 09:31:33;;;;;;;29.27;13.52;;;5.70;99.90;;;;;;5015530;28;20034;-82
2023/01/23 09:33:59;;;;;;;29.42;12.32;;;6.00;99.90;;;;;;5013346;28;20034;-83
2023/01/23 09:36:25;;;;;;;29.70;12.93;;;5.70;99.90;;;;;;5015283;28;20080;-82
2023/01/23 09:38:50;;;;;;;31.20;13.40;;;5.70;99.90;;;;;;5016526;28;20026;-83
2023/01/23 09:41:20;;;;;;;25.02;12.50;;;5.70;99.90;;;;;;5016288;28;20037;-82
2023/01/23 09:44:11;;;;;;;31.65;14.18;;;5.60;99.90;;;;;;5015893;28;20091;-83
2023/01/23 09:47:01;;;;;;;30.25;13.05;;;5.60;99.90;;;;;;5015744;28;20034;-81
2023/01/23 09:49:26;;;;;;;25.88;12.38;;;5.60;99.90;;;;;;5014751;28;20030;-83
2023/01/23 09:52:01;;;;;;;27.98;12.80;;;5.70;99.90;;;;;;5014408;28;20083;-82
2023/01/23 09:54:48;;;;;;;27.20;12.73;;;5.70;99.90;;;;;;5015830;28;20014;-85
2023/01/23 09:57:32;;;;;;;29.65;13.20;;;5.70;99.90;;;;;;5015259;28;20022;-81
2023/01/23 10:00:19;;;;;;;29.50;13.00;;;5.70;99.90;;;;;;5014738;28;20113;-82
2023/01/23 10:02:45;;;;;;;28.58;12.93;;;5.70;99.90;;;;;;5013703;28;20040;-85
2023/01/23 10:05:19;;;;;;;27.00;12.82;;;5.80;99.90;;;;;;5012196;28;20360;-83
2023/01/23 10:08:03;;;;;;;28.40;12.77;;;5.70;99.90;;;;;;5013488;28;20033;-82
2023/01/23 10:10:55;;;;;;;31.75;14.90;;;5.80;99.90;;;;;;5013163;28;20161;-81
2023/01/23 10:13:32;;;;;;;30.75;14.43;;;5.80;99.90;;;;;;5014170;28;20368;-84
2023/01/23 10:16:07;;;;;;;29.20;13.32;;;5.80;99.90;;;;;;5013528;28;20476;-81
2023/01/23 10:19:01;;;;;;;32.03;14.25;;;5.70;99.90;;;;;;5016324;28;20042;-82
2023/01/23 10:22:00;;;;;;;36.72;15.13;;;5.80;99.90;;;;;;5015201;28;20419;-81
2023/01/23 10:24:34;;;;;;;36.00;15.65;;;5.80;99.90;;;;;;5013171;28;20105;-83
2023/01/23 10:27:13;;;;;;;32.80;15.20;;;5.80;99.90;;;;;;5013831;28;20064;-82
2023/01/23 10:29:43;;;;;;;30.50;14.63;;;5.70;99.90;;;;;;5014777;28;20033;-81
2023/01/23 10:32:35;;;;;;;34.63;14.35;;;5.80;99.90;;;;;;5015582;28;20080;-82
2023/01/23 10:35:05;;;;;;;33.75;14.77;;;5.80;99.90;;;;;;5014466;28;20054;-79
2023/01/23 10:37:31;;;;;;;36.42;16.67;;;5.80;99.90;;;;;;5014069;28;20455;-82
2023/01/23 10:40:01;;;;;;;33.08;15.40;;;5.80;99.90;;;;;;5015659;28;20284;-84
2023/01/23 10:42:27;;;;;;;29.70;12.63;;;5.80;99.90;;;;;;5016381;28;20467;-82
2023/01/23 10:44:53;;;;;;;32.42;14.13;;;5.90;99.90;;;;;;5018160;28;20489;-84
2023/01/23 10:47:27;;;;;;;27.35;11.73;;;6.00;99.90;;;;;;5016918;28;20041;-84
2023/01/23 10:49:53;;;;;;;32.63;13.93;;;6.00;99.90;;;;;;5015696;28;20041;-82
2023/01/23 10:52:34;;;;;;;29.25;12.60;;;5.90;99.90;;;;;;5016376;28;20368;-84
2023/01/23 10:55:00;;;;;;;30.63;14.25;;;5.80;99.90;;;;;;5016176;28;20030;-82
2023/01/23 10:57:28;;;;;;;35.78;14.75;;;5.80;99.90;;;;;;5017575;28;20033;-83
2023/01/23 11:00:07;;;;;;;35.78;13.77;;;5.80;99.90;;;;;;5016494;28;20018;-81
2023/01/23 11:02:39;;;;;;;29.10;12.43;;;5.80;99.90;;;;;;5020696;28;20435;-82
2023/01/23 11:05:33;;;;;;;28.25;12.20;;;5.80;99.90;;;;;;5019839;28;20034;-83
2023/01/23 11:07:59;;;;;;;28.45;12.68;;;5.80;99.90;;;;;;5017576;28;20026;-83
2023/01/23 11:10:25;;;;;;;28.27;12.50;;;5.90;99.90;;;;;;5018710;28;20096;-83
2023/01/23 11:12:53;;;;;;;26.75;12.63;;;5.90;99.90;;;;;;5019442;28;20125;-83
2023/01/23 11:15:27;;;;;;;32.55;13.55;;;5.90;99.90;;;;;;5018400;28;20081;-82
2023/01/23 11:17:55;;;;;;;27.40;12.52;;;5.90;99.90;;;;;;5021939;28;20026;-81
2023/01/23 11:20:41;;;;;;;31.75;13.05;;;5.90;99.90;;;;;;5017755;28;20037;-84
2023/01/23 11:23:07;;;;;;;40.35;14.25;;;6.00;99.90;;;;;;5017495;28;20026;-84
2023/01/23 11:25:41;;;;;;;35.40;15.85;;;6.00;99.90;;;;;;5014800;28;20026;-81
2023/01/23 11:28:24;;;;;;;30.15;13.25;;;5.90;99.90;;;;;;5013779;28;20026;-85
2023/01/23 11:31:05;;;;;;;29.48;13.90;;;5.90;99.90;;;;;;5017450;28;20038;-82
2023/01/23 11:33:51;;;;;;;29.67;12.90;;;5.90;99.90;;;;;;5015955;28;20165;-83
2023/01/23 11:36:17;;;;;;;32.72;13.63;;;6.00;99.90;;;;;;5014309;28;20030;-86
2023/01/23 11:38:55;;;;;;;32.28;13.23;;;5.90;99.90;;;;;;5015234;28;20290;-90
2023/01/23 11:41:32;;;;;;;28.08;12.80;;;5.90;99.90;;;;;;5011040;28;20449;-80
2023/01/23 11:43:59;;;;;;;32.90;13.40;;;5.90;99.90;;;;;;5010620;28;20100;-81
2023/01/23 11:47:04;;;;;;;33.72;13.82;;;6.10;99.90;;;;;;5010552;28;20033;-81
2023/01/23 11:50:01;;;;;;;36.50;15.10;;;5.90;99.90;;;;;;5010958;28;20033;-82
2023/01/23 11:53:02;;;;;;;31.45;13.93;;;6.00;99.90;;;;;;5012155;28;20038;-83
2023/01/23 11:55:49;;;;;;;30.38;14.05;;;5.90;99.90;;;;;;5001690;28;20040;-84
2023/01/23 11:59:03;;;;;;;27.25;12.07;;;5.90;99.90;;;;;;5013315;28;20033;-89
2023/01/23 12:02:08;;;;;;;23.80;11.85;;;6.00;99.90;;;;;;4998982;28;20054;-90
2023/01/23 12:04:52;;;;;;;29.20;13.35;;;6.00;99.90;;;;;;4946207;29;20035;-90
2023/01/23 12:07:20;;;;;;;31.92;12.93;;;6.00;99.90;;;;;;5011850;28;20058;-89
2023/01/23 12:10:01;;;;;;;29.27;12.73;;;6.00;99.90;;;;;;5013733;28;20432;-89
2023/01/23 12:12:47;;;;;;;28.75;13.30;;;6.00;99.90;;;;;;5014796;28;20475;-90
2023/01/23 12:16:00;;;;;;;26.23;12.60;;;6.00;99.90;;;;;;5015187;28;20049;-89
2023/01/23 12:18:50;;;;;;;26.30;12.55;;;6.00;99.90;;;;;;5014742;28;20496;-90
2023/01/23 12:21:27;;;;;;;26.23;12.13;;;6.00;99.90;;;;;;5013171;28;20025;-91
2023/01/23 12:24:16;;;;;;;26.05;12.48;;;6.10;99.90;;;;;;5013322;28;20237;-92
2023/01/23 12:27:33;;;;;;;26.15;12.48;;;6.10;99.90;;;;;;5014581;28;20041;-90
2023/01/23 12:30:15;;;;;;;27.48;13.15;;;6.10;99.90;;;;;;4996639;28;20146;-90
2023/01/23 12:33:20;;;;;;;27.38;13.27;;;6.10;99.90;;;;;;4995597;28;20173;-87
2023/01/23 12:36:20;;;;;;;32.10;13.48;;;6.00;99.90;;;;;;4999445;28;20184;-85
2023/01/23 12:38:55;;;;;;;25.92;13.18;;;6.00;99.90;;;;;;5015879;28;20117;-85
2023/01/23 12:41:36;;;;;;;24.50;12.90;;;5.90;99.90;;;;;;5016854;28;20045;-86
2023/01/23 12:44:23;;;;;;;36.65;17.08;;;6.00;99.90;;;;;;5014542;28;20034;-84
2023/01/23 12:47:17;;;;;;;30.23;14.27;;;6.00;99.90;;;;;;5016638;28;20041;-85
2023/01/23 12:49:48;;;;;;;27.80;12.32;;;6.00;99.90;;;;;;5018049;28;20286;-87
2023/01/23 12:52:39;;;;;;;26.48;11.77;;;6.00;99.90;;;;;;5015743;28;20022;-87
2023/01/23 12:55:17;;;;;;;24.30;11.80;;;5.90;99.90;;;;;;5017659;28;20216;-87
2023/01/23 12:57:50;;;;;;;26.23;12.68;;;5.90;99.90;;;;;;5017620;28;20265;-85
2023/01/23 13:00:37;;;;;;;28.42;11.82;;;5.90;99.90;;;;;;5015486;28;20117;-84